Latest Weather Observations for Warburton

IDW60801

Issued at 3:33 pm WST Monday 27 June 2016 (issued every 30 minutes, with the page automatically refreshed every 10 minutes)

About weather observations | Map of weather stations | Latest weather observations for WA | Other Formats
Station Details ID: 013011 Name: WARBURTON AIRFIELD Lat: -26.13 Lon: 126.58 Height: 459.0 m
Data from the previous 72 hours. | See also: Recent months at Warburton
Date/Time
WST
Temp
°C
App
Temp
°C
Dew
Point
°C
Rel
Hum
%
Delta-T
°C
Wind Press
QNH
hPa
Press
MSL
hPa
Rain since
9am
mm
Dir  Spd
km/h
Gust
km/h
Spd
kts
Gust
kts
27/03:30pm 16.2 11.6 3.6 43 5.9 E 17 24 9 13 1021.5 - 0.0
27/03:00pm 16.3 11.6 3.4 42 6.1 ENE 17 28 9 15 1021.6 1021.0 0.0
27/02:30pm 16.3 11.3 3.7 43 6.0 ENE 19 32 10 17 1021.7 - 0.0
27/02:00pm 16.0 11.0 3.8 44 5.8 E 19 28 10 15 1021.8 - 0.0
27/01:30pm 16.1 11.4 3.2 42 6.0 NE 17 26 9 14 1022.0 - 0.0
27/01:00pm 15.8 12.0 5.7 51 5.0 E 15 22 8 12 1022.2 - 0.0
27/12:30pm 15.4 11.1 5.3 51 4.9 E 17 24 9 13 1022.7 - 0.0
27/12:00pm 15.0 10.4 5.8 54 4.5 E 19 28 10 15 1023.4 1022.9 0.0
27/11:30am 14.8 10.6 5.6 54 4.5 ENE 17 26 9 14 1024.2 - 0.0
27/11:00am 13.8 9.0 5.7 58 3.9 E 20 28 11 15 1024.7 - 0.0
27/10:30am 13.4 8.1 4.8 56 4.1 ENE 22 30 12 16 1024.9 - 0.0
27/10:00am 13.0 7.6 4.7 57 3.9 E 22 33 12 18 1025.4 - 0.0
27/09:30am 12.5 7.7 5.4 62 3.4 E 20 28 11 15 1025.6 - 0.0
27/09:00am 11.8 7.2 5.7 66 2.9 E 19 26 10 14 1025.8 1025.3 0.2
27/08:30am 10.7 6.5 5.5 70 2.5 E 17 24 9 13 1025.7 - 0.2
27/08:00am 9.2 5.0 4.0 70 2.3 E 15 20 8 11 1025.3 - 0.2
27/07:30am 7.0 3.1 3.4 78 1.6 ESE 13 15 7 8 1024.9 - 0.2
27/07:00am 5.9 2.0 3.2 83 1.2 SE 13 17 7 9 1024.7 - 0.2
27/06:30am 4.7 1.1 3.2 90 0.6 ESE 11 13 6 7 1024.6 - 0.2
27/06:00am 4.8 1.3 3.3 90 0.6 ESE 11 15 6 8 1024.1 1023.5 0.2
27/05:30am 4.9 1.3 3.2 89 0.7 ESE 11 13 6 7 1024.1 - 0.2
27/05:00am 5.1 1.9 3.3 88 0.8 ESE 9 13 5 7 1024.0 - 0.2
27/04:30am 5.4 1.9 3.6 88 0.8 ESE 11 13 6 7 1024.0 - 0.2
27/04:00am 5.1 2.1 4.1 93 0.4 SE 9 11 5 6 1024.1 - 0.2
27/03:30am 5.3 2.0 4.6 95 0.3 SE 11 13 6 7 1024.1 - 0.2
27/03:00am 4.8 2.2 4.4 97 0.2 SE 7 9 4 5 1024.3 1023.7 0.2
27/02:30am 5.1 2.2 4.7 97 0.2 SE 9 11 5 6 1024.3 - 0.2
27/02:00am 4.9 2.4 4.5 97 0.2 SE 7 9 4 5 1024.5 - 0.2
27/01:30am 5.7 3.3 5.1 96 0.3 SE 7 9 4 5 1024.5 - 0.2
27/01:00am 5.8 3.4 5.1 95 0.3 SE 7 9 4 5 1024.4 - 0.2
27/12:30am 6.4 3.6 5.0 91 0.6 SE 9 11 5 6 1024.5 - 0.2
27/12:00am 6.8 4.0 5.1 89 0.8 SE 9 11 5 6 1024.4 1023.8 0.2
 
Date/Time
WST
Temp
°C
App
Temp
°C
Dew
Point
°C
Rel
Hum
%
Delta-T
°C
Wind Press
QNH
hPa
Press
MSL
hPa
Rain since
9am
mm
Dir  Spd
km/h
Gust
km/h
Spd
kts
Gust
kts
26/11:30pm 6.8 4.1 5.4 91 0.6 ESE 9 11 5 6 1024.5 - 0.2
26/11:00pm 7.0 4.3 5.6 91 0.6 ESE 9 11 5 6 1024.6 - 0.2
26/10:30pm 7.5 5.2 5.6 88 0.9 SE 7 9 4 5 1024.7 - 0.2
26/10:00pm 7.8 5.5 5.8 87 0.9 ESE 7 9 4 5 1024.6 - 0.2
26/09:30pm 8.7 5.7 6.2 84 1.2 SE 11 15 6 8 1024.6 - 0.2
26/09:00pm 9.0 6.4 6.1 82 1.4 SE 9 11 5 6 1024.4 1023.8 0.2
26/08:30pm 9.2 6.6 6.3 82 1.4 SSE 9 13 5 7 1024.2 - 0.2
26/08:00pm 9.9 7.4 6.4 79 1.7 SE 9 11 5 6 1023.8 - 0.2
26/07:30pm 10.4 7.4 6.2 75 2.0 SSE 11 15 6 8 1023.1 - 0.2
26/07:00pm 11.0 7.7 6.2 72 2.3 SSE 13 15 7 8 1022.8 - 0.2
26/06:30pm 11.2 7.8 6.1 71 2.4 SSE 13 17 7 9 1022.6 - 0.2
26/06:00pm 11.9 8.9 6.0 67 2.8 S 11 13 6 7 1022.5 1021.9 0.2
26/05:30pm 12.8 9.3 5.5 61 3.5 S 13 15 7 8 1022.1 - 0.2
26/05:00pm 14.0 9.9 4.6 53 4.5 SSE 15 20 8 11 1021.9 - 0.2
26/04:30pm 15.0 11.3 4.7 50 4.9 SSE 13 19 7 10 1021.7 - 0.2
26/04:00pm 15.4 11.8 5.0 50 5.0 SE 13 20 7 11 1021.5 - 0.2
26/03:30pm 15.2 10.3 4.9 50 5.0 SSE 20 32 11 17 1021.2 - 0.2
26/03:00pm 15.7 10.3 4.4 47 5.4 SE 22 28 12 15 1021.2 1020.7 0.2
26/02:30pm 15.9 11.3 5.5 50 5.1 SSE 19 28 10 15 1021.1 - 0.2
26/02:00pm 15.7 10.8 5.3 50 5.1 SE 20 32 11 17 1021.0 - 0.2
26/01:30pm 15.7 11.7 6.7 55 4.5 SSE 17 26 9 14 1021.0 - 0.2
26/01:00pm 14.8 10.3 5.9 55 4.4 SE 19 26 10 14 1021.6 - 0.2
26/12:30pm 15.2 10.4 5.4 52 4.8 SSE 20 30 11 16 1021.8 - 0.2
26/12:00pm 14.8 10.2 6.6 58 4.1 SSE 20 30 11 16 1022.2 1021.6 0.2
26/11:30am 14.4 8.5 6.0 57 4.1 SSE 26 35 14 19 1022.6 - 0.2
26/11:00am 14.6 10.6 8.1 65 3.3 SSE 19 33 10 18 1023.1 - 0.0
26/10:30am 13.4 9.6 6.0 61 3.6 S 15 20 8 11 1023.4 - 0.0
26/10:00am 12.4 9.3 7.3 71 2.5 S 13 19 7 10 1023.6 - 0.0
26/09:30am 11.7 8.2 7.4 75 2.1 S 15 20 8 11 1023.8 - 0.0
26/09:00am 10.3 8.1 7.9 85 1.2 S 9 13 5 7 1023.8 1023.2 18.6
26/08:30am 8.7 7.0 8.3 97 0.2 SSE 7 9 4 5 1023.4 - 18.6
26/08:00am 6.8 5.7 6.7 99 0.0 ESE 2 7 1 4 1022.9 - 18.6
26/07:30am 5.7 4.7 5.6 99 0.0 CALM 0 0 0 0 1022.6 - 18.6
26/07:00am 3.8 2.4 3.7 99 0.0 CALM 0 0 0 0 1022.1 - 18.6
26/06:30am 3.1 1.6 3.0 99 0.0 CALM 0 0 0 0 1021.7 - 18.6
26/06:00am 3.4 2.0 3.3 99 0.0 CALM 0 0 0 0 1021.3 1020.8 18.6
26/05:30am 3.5 2.1 3.4 99 0.0 CALM 0 0 0 0 1020.9 - 18.6
26/05:00am 3.7 1.9 3.6 99 0.0 NNE 2 6 1 3 1020.7 - 18.6
26/04:30am 3.9 2.2 3.8 99 0.0 NNE 2 6 1 3 1020.5 - 18.6
26/04:00am 4.3 3.0 4.2 99 0.0 CALM 0 0 0 0 1020.3 - 18.6
26/03:30am 4.8 3.6 4.7 99 0.0 CALM 0 0 0 0 1020.2 - 18.6
26/03:00am 5.1 4.0 5.0 99 0.0 CALM 0 0 0 0 1020.0 1019.4 18.6
26/02:30am 5.5 4.5 5.4 99 0.0 CALM 0 0 0 0 1020.0 - 18.6
26/02:00am 5.9 4.9 5.8 99 0.0 CALM 0 0 0 0 1019.9 - 18.6
26/01:30am 6.4 5.6 6.3 99 0.0 CALM 0 0 0 0 1020.1 - 18.6
26/01:00am 6.7 5.2 6.6 99 0.0 SSW 4 7 2 4 1019.9 - 18.6
26/12:30am 7.3 4.9 7.2 99 0.0 SSW 9 11 5 6 1019.8 - 18.6
26/12:00am 7.7 5.1 7.6 99 0.0 S 11 15 6 8 1019.7 1019.1 18.6
 
Date/Time
WST
Temp
°C
App
Temp
°C
Dew
Point
°C
Rel
Hum
%
Delta-T
°C
Wind Press
QNH
hPa
Press
MSL
hPa
Rain since
9am
mm
Dir  Spd
km/h
Gust
km/h
Spd
kts
Gust
kts
25/11:30pm 8.0 6.2 7.9 99 0.0 S 7 11 4 6 1019.8 - 18.6
25/11:00pm 8.7 5.5 8.6 99 0.0 S 15 20 8 11 1019.9 - 18.4
25/10:30pm 9.0 5.9 8.9 99 0.1 SSW 15 20 8 11 1019.9 - 18.4
25/10:00pm 9.3 7.4 9.2 99 0.1 SSW 9 11 5 6 1019.8 - 18.4
25/09:30pm 9.8 7.6 9.5 98 0.2 SW 11 15 6 8 1019.8 - 18.4
25/09:00pm 10.1 8.4 9.9 99 0.1 SW 9 15 5 8 1019.5 1018.9 18.4
25/08:30pm 10.2 8.5 10.0 99 0.1 SW 9 13 5 7 1019.4 - 18.4
25/08:00pm 10.1 8.4 9.9 99 0.1 SW 9 13 5 7 1019.5 - 18.4
25/07:30pm 9.5 9.4 9.4 99 0.1 CALM 0 0 0 0 1018.8 - 18.4
25/07:00pm 10.0 8.9 9.9 99 0.1 SW 6 7 3 4 1018.5 - 18.4
25/06:30pm 10.4 9.2 10.2 99 0.1 SW 7 9 4 5 1018.3 - 18.4
25/06:00pm 10.3 9.0 10.1 99 0.1 S 7 11 4 6 1017.7 1017.1 18.4
25/05:30pm 10.4 9.2 10.2 99 0.1 SW 7 9 4 5 1017.8 - 18.4
25/05:00pm 10.4 8.4 10.2 99 0.1 SSW 11 17 6 9 1017.3 - 17.6
25/04:30pm 10.5 8.5 10.2 98 0.2 SSW 11 17 6 9 1016.9 - 17.4
25/04:00pm 10.5 9.3 10.3 99 0.1 S 7 9 4 5 1016.2 - 16.6
25/03:30pm 10.5 8.9 10.2 98 0.2 SE 9 13 5 7 1016.0 - 16.0
25/03:00pm 10.6 9.0 10.3 98 0.2 S 9 13 5 7 1016.9 1016.2 14.8
25/02:30pm 10.7 9.2 10.4 98 0.2 S 9 11 5 6 1017.0 - 13.6
25/02:00pm 10.6 10.4 10.3 98 0.2 S 2 7 1 4 1017.2 - 12.6
25/01:30pm 10.9 8.7 10.7 99 0.1 S 13 17 7 9 1016.5 - 11.4
25/01:00pm 10.9 9.4 10.7 99 0.1 S 9 13 5 7 1017.3 - 10.6
25/12:30pm 10.9 8.3 10.7 99 0.1 SW 15 24 8 13 1017.8 - 9.4
25/12:00pm 11.2 8.7 11.0 99 0.1 SW 15 19 8 10 1018.1 1017.5 7.0
25/11:30am 11.3 9.2 11.1 99 0.1 SSW 13 19 7 10 1017.9 - 5.8
25/11:00am 11.2 9.8 11.0 99 0.1 S 9 13 5 7 1018.3 - 3.8
25/10:30am 11.1 9.3 10.8 98 0.2 SSW 11 13 6 7 1018.4 - 3.4
25/10:00am 11.3 10.5 11.0 98 0.2 WSW 6 9 3 5 1018.7 - 2.0
25/09:30am 11.5 11.8 11.0 97 0.3 CALM 0 6 0 3 1018.5 - 1.2
25/09:00am 11.5 11.6 10.2 92 0.7 CALM 0 0 0 0 1018.3 1017.7 0.8
25/08:30am 11.7 11.6 9.3 85 1.2 CALM 0 0 0 0 1018.3 - 0.2
25/08:00am 11.7 11.6 9.4 86 1.2 CALM 0 6 0 3 1018.4 - 0.0
25/07:30am 11.3 11.1 9.2 87 1.1 CALM 0 0 0 0 1017.9 - 0.0
25/07:00am 11.1 11.0 9.5 90 0.8 CALM 0 0 0 0 1017.9 - 0.0
25/06:30am 10.5 10.6 10.0 97 0.3 CALM 0 0 0 0 1017.5 - 0.0
25/06:00am 10.6 9.7 9.2 91 0.7 S 4 6 2 3 1017.4 1016.8 0.0
25/05:30am 11.0 10.6 8.2 83 1.4 CALM 0 0 0 0 1017.9 - 0.0
25/05:00am 11.1 10.6 8.0 81 1.5 CALM 0 0 0 0 1017.8 - 0.0
25/04:30am 11.1 10.6 7.8 80 1.6 CALM 0 0 0 0 1017.5 - 0.0
25/04:00am 11.2 10.4 6.7 74 2.2 CALM 0 0 0 0 1017.3 - 0.0
25/03:30am 10.7 8.9 7.2 79 1.7 E 6 7 3 4 1016.7 - 0.0
25/03:00am 10.6 8.1 6.7 77 1.9 ESE 9 11 5 6 1017.1 1016.4 0.0
25/02:30am 10.7 8.6 6.6 76 2.0 SE 7 9 4 5 1018.0 - 0.0
25/02:00am 10.7 8.2 6.5 75 2.0 SE 9 13 5 7 1017.8 - 0.0
25/01:30am 10.6 7.7 6.4 75 2.0 ESE 11 15 6 8 1017.5 - 0.0
25/01:00am 10.6 7.2 6.0 73 2.2 ESE 13 17 7 9 1018.2 - 0.0
25/12:30am 10.4 7.8 6.2 75 2.0 SE 9 13 5 7 1018.1 - 0.0
25/12:00am 10.7 7.8 6.3 74 2.1 ESE 11 15 6 8 1018.3 1017.7 0.0
 
Date/Time
WST
Temp
°C
App
Temp
°C
Dew
Point
°C
Rel
Hum
%
Delta-T
°C
Wind Press
QNH
hPa
Press
MSL
hPa
Rain since
9am
mm
Dir  Spd
km/h
Gust
km/h
Spd
kts
Gust
kts
24/11:30pm 10.8 7.8 6.2 73 2.2 ESE 11 15 6 8 1018.8 - 0.0
24/11:00pm 10.8 7.8 6.2 73 2.2 SE 11 13 6 7 1019.2 - 0.0
24/10:30pm 11.4 7.9 5.5 67 2.8 ESE 13 20 7 11 1019.2 - 0.0
24/10:00pm 11.8 7.5 5.4 65 3.0 ESE 17 20 9 11 1019.2 - 0.0
24/09:30pm 10.8 7.5 6.2 73 2.2 ESE 13 17 7 9 1019.4 - 0.0
24/09:00pm 10.8 7.9 6.6 75 2.0 ESE 11 15 6 8 1019.7 1019.1 0.0
24/08:30pm 11.0 8.1 6.7 75 2.1 ESE 11 13 6 7 1019.8 - 0.0
24/08:00pm 10.6 8.1 6.7 77 1.9 ESE 9 13 5 7 1019.8 - 0.0
24/07:30pm 11.2 8.3 6.7 74 2.2 SE 11 13 6 7 1019.5 - 0.0
24/07:00pm 11.5 8.7 6.8 73 2.3 SE 11 13 6 7 1019.6 - 0.0
24/06:30pm 11.8 9.3 6.7 71 2.5 SE 9 11 5 6 1019.5 - 0.0
24/06:00pm 12.8 10.2 5.9 63 3.3 SE 9 13 5 7 1019.3 1018.7 0.0
24/05:30pm 13.7 10.6 5.6 58 3.9 ESE 11 13 6 7 1019.0 - 0.0
24/05:00pm 14.9 11.7 4.9 51 4.8 ESE 11 15 6 8 1019.2 - 0.0
24/04:30pm 15.9 11.9 4.9 48 5.3 ESE 15 20 8 11 1019.0 - 0.0
24/04:00pm 16.4 11.9 4.4 45 5.8 E 17 26 9 14 1018.7 - 0.0

Other Formats:

Comma delimited format used in spreadsheet applications
http://www.bom.gov.au/fwo/IDW60801/IDW60801.94457.axf

JavaScript Object Notation format (JSON) in row-major order
http://www.bom.gov.au/fwo/IDW60801/IDW60801.94457.json